createdAt,value
2023-03-06T00:01:09.958Z,92.71
2023-03-06T00:03:38.428Z,93.93
2023-03-06T00:06:09.258Z,93.82
2023-03-06T00:08:37.521Z,94.60
2023-03-06T00:11:07.232Z,94.62
2023-03-06T00:13:35.448Z,94.85
2023-03-06T00:16:03.745Z,96.10
2023-03-06T00:18:31.945Z,95.65
2023-03-06T00:21:00.268Z,95.83
2023-03-06T00:23:28.965Z,96.26
2023-03-06T00:25:57.183Z,96.63
2023-03-06T00:28:27.250Z,96.62
2023-03-06T00:30:55.724Z,97.73
2023-03-06T00:33:23.867Z,97.07
2023-03-06T00:35:55.009Z,96.35
2023-03-06T00:39:29.900Z,96.73
2023-03-06T00:41:58.398Z,96.22
2023-03-06T00:44:29.531Z,96.80
2023-03-06T00:46:57.649Z,96.18
2023-03-06T00:49:29.027Z,96.69
2023-03-06T00:51:57.397Z,96.80
2023-03-06T00:54:26.182Z,95.45
2023-03-06T00:56:59.037Z,95.60
2023-03-06T00:59:27.827Z,95.10
2023-03-06T01:01:56.080Z,94.50
2023-03-06T01:04:24.574Z,94.12
2023-03-06T01:06:55.016Z,93.75
2023-03-06T01:09:25.800Z,92.66
2023-03-06T01:11:55.306Z,92.38
2023-03-06T01:14:25.371Z,93.02
2023-03-06T01:16:53.774Z,91.79
2023-03-06T01:19:21.976Z,91.49
2023-03-06T01:21:52.451Z,91.96
2023-03-06T01:24:20.540Z,91.71
2023-03-06T01:26:48.788Z,92.03
2023-03-06T01:29:17.177Z,91.40
2023-03-06T01:31:46.677Z,91.03
2023-03-06T01:34:15.055Z,91.65
2023-03-06T01:36:43.172Z,91.44
2023-03-06T01:39:11.815Z,91.55
2023-03-06T01:41:42.828Z,92.00
2023-03-06T01:44:13.680Z,91.75
2023-03-06T01:46:43.176Z,91.56
2023-03-06T01:49:22.035Z,92.06
2023-03-06T01:51:54.300Z,91.86
2023-03-06T01:54:27.152Z,92.32
2023-03-06T01:57:00.388Z,92.59
2023-03-06T01:59:30.069Z,92.80
2023-03-06T02:02:01.825Z,92.22
2023-03-06T02:04:31.970Z,92.51
2023-03-06T02:07:05.911Z,93.09
2023-03-06T02:09:36.630Z,92.85
2023-03-06T02:12:09.407Z,92.07
2023-03-06T02:14:38.536Z,92.36
2023-03-06T02:17:08.317Z,92.24
2023-03-06T02:19:57.343Z,92.66
2023-03-06T02:22:32.182Z,92.66
2023-03-06T02:25:09.308Z,92.55
2023-03-06T02:27:39.104Z,92.71
2023-03-06T02:30:08.688Z,93.42
2023-03-06T02:32:36.998Z,92.90
2023-03-06T02:35:07.156Z,92.80
2023-03-06T02:37:35.398Z,92.96
2023-03-06T02:40:12.456Z,93.20
2023-03-06T02:42:47.194Z,93.15
2023-03-06T02:45:20.322Z,93.21
2023-03-06T02:47:48.546Z,93.90
2023-03-06T02:50:17.119Z,93.62
2023-03-06T02:52:48.916Z,93.34
2023-03-06T02:55:19.648Z,93.49
2023-03-06T02:57:49.255Z,94.01
2023-03-06T03:00:20.847Z,93.82
2023-03-06T03:02:49.341Z,93.96
2023-03-06T03:05:17.620Z,93.47
2023-03-06T03:07:49.912Z,93.95
2023-03-06T03:10:19.602Z,94.22
2023-03-06T03:12:50.476Z,94.33
2023-03-06T03:15:19.397Z,93.79
2023-03-06T03:17:48.012Z,94.43
2023-03-06T03:20:18.861Z,94.42
2023-03-06T03:22:49.386Z,94.42
2023-03-06T03:25:17.631Z,94.80
2023-03-06T03:27:46.601Z,94.68
2023-03-06T03:30:16.882Z,94.75
2023-03-06T03:32:47.344Z,94.60
2023-03-06T03:35:15.683Z,95.03
2023-03-06T03:37:44.276Z,94.86
2023-03-06T03:40:13.758Z,94.56
2023-03-06T03:42:42.272Z,95.35
2023-03-06T03:45:12.164Z,95.22
2023-03-06T03:47:43.874Z,95.35
2023-03-06T03:50:13.957Z,95.58
2023-03-06T03:52:43.676Z,95.34
2023-03-06T03:55:14.052Z,95.64
2023-03-06T03:57:44.320Z,95.78
2023-03-06T04:00:16.586Z,96.00
2023-03-06T04:02:56.799Z,96.20
2023-03-06T04:05:31.220Z,96.10
2023-03-06T04:08:18.270Z,96.63
2023-03-06T04:10:48.082Z,96.43
2023-03-06T04:13:18.240Z,95.75
2023-03-06T04:15:47.493Z,96.14
2023-03-06T04:18:17.331Z,96.18
2023-03-06T04:20:47.497Z,96.53
2023-03-06T04:23:16.888Z,97.05
2023-03-06T04:25:46.289Z,96.80
2023-03-06T04:28:15.545Z,95.87
2023-03-06T04:30:44.192Z,95.71
2023-03-06T04:33:13.490Z,96.45
2023-03-06T04:35:44.769Z,96.60
2023-03-06T04:38:19.461Z,97.11
2023-03-06T04:40:49.759Z,97.16
2023-03-06T04:43:18.504Z,98.19
2023-03-06T04:45:49.140Z,99.36
2023-03-06T04:48:19.203Z,99.14
2023-03-06T04:50:48.849Z,100.00
2023-03-06T04:53:19.742Z,99.99
2023-03-06T04:55:48.158Z,100.00
2023-03-06T04:58:17.119Z,100.00
2023-03-06T05:00:45.471Z,100.00
2023-03-06T05:03:16.057Z,100.00
2023-03-06T05:05:44.234Z,100.00
2023-03-06T05:08:16.777Z,100.00
2023-03-06T05:10:46.314Z,100.00
2023-03-06T05:13:14.763Z,100.00
2023-03-06T05:15:45.268Z,100.00
2023-03-06T05:18:13.746Z,100.00
2023-03-06T05:20:41.988Z,100.00
2023-03-06T05:23:12.898Z,100.00
2023-03-06T05:25:43.203Z,100.00
2023-03-06T05:28:11.787Z,100.00
2023-03-06T05:30:42.963Z,100.00
2023-03-06T05:35:59.317Z,100.00
2023-03-06T05:40:30.438Z,100.00
2023-03-06T05:43:00.943Z,100.00
2023-03-06T05:45:29.112Z,100.00
2023-03-06T05:47:57.365Z,100.00
2023-03-06T05:50:25.574Z,100.00
2023-03-06T05:52:54.359Z,100.00
2023-03-06T05:55:24.140Z,100.00
2023-03-06T05:57:55.079Z,100.00
2023-03-06T06:00:24.660Z,100.00
2023-03-06T06:02:53.065Z,100.00
2023-03-06T06:05:21.746Z,100.00
2023-03-06T06:07:50.209Z,100.00
2023-03-06T06:10:18.787Z,100.00
2023-03-06T06:12:49.933Z,100.00
2023-03-06T06:15:19.775Z,100.00
2023-03-06T06:17:48.467Z,100.00
2023-03-06T06:20:17.322Z,100.00
2023-03-06T06:22:45.996Z,100.00
2023-03-06T06:25:14.433Z,100.00
2023-03-06T06:27:43.134Z,100.00
2023-03-06T06:30:13.732Z,100.00
2023-03-06T06:32:43.621Z,100.00
2023-03-06T06:35:11.789Z,100.00
2023-03-06T06:37:40.365Z,100.00
2023-03-06T06:40:10.028Z,100.00
2023-03-06T06:42:40.300Z,100.00
2023-03-06T06:45:12.489Z,100.00
2023-03-06T06:47:41.875Z,100.00
2023-03-06T06:50:14.671Z,100.00
2023-03-06T06:52:42.970Z,100.00
2023-03-06T06:55:15.455Z,100.00
2023-03-06T06:57:44.605Z,100.00
2023-03-06T07:00:15.039Z,100.00
2023-03-06T07:02:43.535Z,100.00
2023-03-06T07:05:13.581Z,100.00
2023-03-06T07:07:45.078Z,100.00
2023-03-06T07:10:16.077Z,100.00
2023-03-06T07:12:45.161Z,100.00
2023-03-06T07:15:15.155Z,100.00
2023-03-06T07:17:43.570Z,100.00
2023-03-06T07:20:13.935Z,100.00
2023-03-06T07:22:50.712Z,100.00
2023-03-06T07:25:20.251Z,100.00
2023-03-06T07:27:53.354Z,100.00
2023-03-06T07:30:23.545Z,100.00
2023-03-06T07:32:54.424Z,100.00
2023-03-06T07:35:25.474Z,100.00
2023-03-06T07:37:55.824Z,100.00
2023-03-06T07:40:27.380Z,100.00
2023-03-06T07:43:12.921Z,100.00
2023-03-06T07:45:57.525Z,100.00
2023-03-06T07:48:28.993Z,100.00
2023-03-06T07:51:00.745Z,100.00
2023-03-06T07:53:29.947Z,100.00
2023-03-06T07:56:00.294Z,100.00
2023-03-06T07:58:28.676Z,100.00
2023-03-06T08:00:56.858Z,100.00
2023-03-06T08:03:24.986Z,100.00
2023-03-06T08:05:53.470Z,100.00
2023-03-06T08:08:22.988Z,100.00
2023-03-06T08:10:51.605Z,100.00
2023-03-06T08:13:19.796Z,100.00
2023-03-06T08:15:51.396Z,100.00
2023-03-06T08:18:19.655Z,100.00
2023-03-06T08:20:50.431Z,100.00
2023-03-06T08:23:18.748Z,100.00
2023-03-06T08:25:57.016Z,100.00
2023-03-06T08:28:25.167Z,100.00
2023-03-06T08:30:56.141Z,100.00
2023-03-06T08:33:25.246Z,100.00
2023-03-06T08:35:53.860Z,100.00
2023-03-06T08:38:24.637Z,100.00
2023-03-06T08:40:54.811Z,100.00
2023-03-06T08:43:23.105Z,100.00
2023-03-06T08:45:53.557Z,99.90
2023-03-06T08:48:21.849Z,99.54
2023-03-06T08:50:50.747Z,99.98
2023-03-06T08:53:19.286Z,99.45
2023-03-06T08:55:50.103Z,98.89
2023-03-06T08:58:19.652Z,98.63
2023-03-06T09:00:48.226Z,98.36
2023-03-06T09:03:16.467Z,98.87
2023-03-06T09:05:44.726Z,98.00
2023-03-06T09:08:12.869Z,97.69
2023-03-06T09:10:41.104Z,97.58
2023-03-06T09:13:09.536Z,96.00
2023-03-06T09:15:39.755Z,95.90
2023-03-06T09:18:08.504Z,95.74
2023-03-06T09:20:36.747Z,96.32
2023-03-06T09:23:04.976Z,95.00
2023-03-06T09:25:33.153Z,95.23
2023-03-06T09:28:11.077Z,94.21
2023-03-06T09:30:42.537Z,92.72
2023-03-06T09:33:10.788Z,91.74
2023-03-06T09:35:43.831Z,89.43
2023-03-06T09:38:14.508Z,89.56
2023-03-06T09:40:53.470Z,89.04
2023-03-06T09:43:26.716Z,87.92
2023-03-06T09:45:56.255Z,87.87
2023-03-06T09:48:36.125Z,85.80
2023-03-06T09:51:12.675Z,85.63
2023-03-06T09:53:59.051Z,84.79
2023-03-06T09:56:32.094Z,84.16
2023-03-06T09:59:08.620Z,83.26
2023-03-06T10:01:41.333Z,84.07
2023-03-06T10:04:31.770Z,83.70
2023-03-06T10:07:06.224Z,83.23
2023-03-06T10:09:44.296Z,82.34
2023-03-06T10:12:24.537Z,83.59
2023-03-06T10:15:13.181Z,82.90
2023-03-06T10:17:44.248Z,84.15
2023-03-06T10:20:24.794Z,83.59
2023-03-06T10:23:16.317Z,84.31
2023-03-06T10:25:52.680Z,83.19
2023-03-06T10:28:29.681Z,82.71
2023-03-06T10:31:13.428Z,80.60
2023-03-06T10:33:54.293Z,82.64
2023-03-06T10:36:27.085Z,81.22
2023-03-06T10:41:39.511Z,79.64
2023-03-06T10:44:25.224Z,79.89
2023-03-06T10:46:54.954Z,80.14
2023-03-06T10:49:30.125Z,79.48
2023-03-06T10:52:01.829Z,77.89
2023-03-06T10:54:37.020Z,77.94
2023-03-06T10:57:32.148Z,78.91
2023-03-06T11:00:04.453Z,77.66
2023-03-06T11:02:36.441Z,76.79
2023-03-06T11:05:06.846Z,77.99
2023-03-06T11:07:36.421Z,77.32
2023-03-06T11:10:19.178Z,76.40
2023-03-06T11:13:00.473Z,76.13
2023-03-06T11:15:29.912Z,77.77
2023-03-06T11:18:01.518Z,76.85
2023-03-06T11:20:50.107Z,76.78
2023-03-06T11:23:21.408Z,76.85
2023-03-06T11:25:53.917Z,77.51
2023-03-06T11:28:29.104Z,77.74
2023-03-06T11:31:03.202Z,75.90
2023-03-06T11:33:38.732Z,75.63
2023-03-06T11:36:14.510Z,73.08
2023-03-06T11:38:49.789Z,71.87
2023-03-06T11:41:27.955Z,72.00
2023-03-06T11:44:04.586Z,71.88
2023-03-06T11:46:38.719Z,73.63
2023-03-06T11:49:18.259Z,73.50
2023-03-06T11:51:53.767Z,73.75
2023-03-06T11:54:22.300Z,75.54
2023-03-06T11:56:56.273Z,75.27
2023-03-06T11:59:48.395Z,76.48
2023-03-06T12:02:30.399Z,75.69
2023-03-06T12:05:13.388Z,74.26
2023-03-06T12:07:52.464Z,74.11
2023-03-06T12:10:27.944Z,75.06
2023-03-06T12:13:16.753Z,74.18
2023-03-06T12:16:03.076Z,75.38
2023-03-06T12:18:43.385Z,74.92
2023-03-06T12:21:19.861Z,74.71
2023-03-06T12:24:04.893Z,73.71
2023-03-06T12:26:51.187Z,73.10
2023-03-06T12:30:00.552Z,71.96
2023-03-06T12:32:49.932Z,70.72
2023-03-06T12:35:31.154Z,70.63
2023-03-06T12:38:09.453Z,69.94
2023-03-06T12:40:52.414Z,70.14
2023-03-06T12:43:47.251Z,70.12
2023-03-06T12:46:18.570Z,69.52
2023-03-06T12:48:59.253Z,68.91
2023-03-06T12:51:30.574Z,69.00
2023-03-06T12:54:00.500Z,69.88
2023-03-06T12:56:31.010Z,67.97
2023-03-06T12:59:02.613Z,68.55
2023-03-06T13:01:55.207Z,67.10
2023-03-06T13:04:42.632Z,66.28
2023-03-06T13:07:31.310Z,65.36
2023-03-06T13:10:12.291Z,66.22
2023-03-06T13:12:57.267Z,65.91
2023-03-06T13:15:37.937Z,65.74
2023-03-06T13:18:58.336Z,65.90
2023-03-06T13:22:03.278Z,65.30
2023-03-06T13:24:35.673Z,65.57
2023-03-06T13:27:09.080Z,65.40
2023-03-06T13:30:21.062Z,64.51
2023-03-06T13:32:52.758Z,63.44
2023-03-06T13:35:55.267Z,64.50
2023-03-06T13:38:38.075Z,65.06
2023-03-06T13:41:43.555Z,65.40
2023-03-06T13:44:47.511Z,63.57
2023-03-06T13:48:02.887Z,65.37
2023-03-06T13:50:35.719Z,63.54
2023-03-06T13:53:40.739Z,64.79
2023-03-06T13:56:32.694Z,65.11
2023-03-06T13:59:33.079Z,65.93
2023-03-06T14:02:19.366Z,67.25
2023-03-06T14:04:58.711Z,68.94
2023-03-06T14:07:30.035Z,69.97
2023-03-06T14:10:10.226Z,70.34
2023-03-06T14:12:44.464Z,72.37
2023-03-06T14:15:20.060Z,71.23
2023-03-06T14:17:57.673Z,72.32
2023-03-06T14:20:35.061Z,72.07
2023-03-06T14:23:26.969Z,72.39
2023-03-06T14:26:03.639Z,73.25
2023-03-06T14:28:33.211Z,72.39
2023-03-06T14:31:04.310Z,74.37
2023-03-06T14:33:38.070Z,73.63
2023-03-06T14:36:09.018Z,72.10
2023-03-06T14:38:46.677Z,69.51
2023-03-06T14:41:24.448Z,70.77
2023-03-06T14:43:53.366Z,70.29
2023-03-06T14:46:23.683Z,70.07
2023-03-06T14:48:52.216Z,69.86
2023-03-06T14:51:25.474Z,70.12
2023-03-06T14:54:03.562Z,70.70
2023-03-06T14:56:37.528Z,70.38
2023-03-06T14:59:09.346Z,71.59
2023-03-06T15:01:39.807Z,71.12
2023-03-06T15:04:21.351Z,70.50
2023-03-06T15:06:51.723Z,70.33
2023-03-06T15:09:25.421Z,70.68
2023-03-06T15:11:56.366Z,71.16
2023-03-06T15:14:32.126Z,72.45
2023-03-06T15:17:21.684Z,74.30
2023-03-06T15:19:51.587Z,75.66
2023-03-06T15:22:40.016Z,76.28
2023-03-06T15:25:26.672Z,77.84
2023-03-06T15:27:57.727Z,78.51
2023-03-06T15:30:29.315Z,80.00
2023-03-06T15:33:25.684Z,79.77
2023-03-06T15:35:57.215Z,80.79
2023-03-06T15:38:33.911Z,81.08
2023-03-06T15:42:39.809Z,82.03
2023-03-06T15:45:16.377Z,82.95
2023-03-06T15:47:45.091Z,83.41
2023-03-06T15:50:18.784Z,83.54
2023-03-06T15:52:47.840Z,84.29
2023-03-06T15:55:23.582Z,84.24
2023-03-06T15:57:55.506Z,84.42
2023-03-06T16:00:28.621Z,85.47
2023-03-06T16:02:56.823Z,85.77
2023-03-06T16:05:25.354Z,86.80
2023-03-06T16:07:53.953Z,86.11
2023-03-06T16:10:24.240Z,87.14
2023-03-06T16:12:57.128Z,86.58
2023-03-06T16:15:28.957Z,86.53
2023-03-06T16:17:57.350Z,87.59
2023-03-06T16:20:28.029Z,88.50
2023-03-06T16:22:59.126Z,88.10
2023-03-06T16:25:29.034Z,88.66
2023-03-06T16:27:59.834Z,89.34
2023-03-06T16:30:29.722Z,90.13
2023-03-06T16:32:58.197Z,90.82
2023-03-06T16:35:27.734Z,91.12
2023-03-06T16:37:55.936Z,92.07
2023-03-06T16:40:27.255Z,92.44
2023-03-06T16:42:56.071Z,93.28
2023-03-06T16:45:25.858Z,93.63
2023-03-06T16:47:54.519Z,94.29
2023-03-06T16:50:26.463Z,94.98
2023-03-06T16:52:55.994Z,95.13
2023-03-06T16:55:25.473Z,96.10
2023-03-06T16:57:54.752Z,96.31
2023-03-06T17:00:28.179Z,96.32
2023-03-06T17:02:57.459Z,96.12
2023-03-06T17:05:25.809Z,96.20
2023-03-06T17:07:54.213Z,95.90
2023-03-06T17:10:26.227Z,95.96
2023-03-06T17:12:57.022Z,95.90
2023-03-06T17:15:26.556Z,96.27
2023-03-06T17:17:55.818Z,96.64
2023-03-06T17:20:24.389Z,97.14
2023-03-06T17:22:52.897Z,97.47
2023-03-06T17:25:21.284Z,97.43
2023-03-06T17:27:49.616Z,97.95
2023-03-06T17:30:17.929Z,97.57
2023-03-06T17:32:47.713Z,97.18
2023-03-06T17:35:16.442Z,96.84
2023-03-06T17:37:44.956Z,95.62
2023-03-06T17:40:15.532Z,94.95
2023-03-06T17:42:43.752Z,95.11
2023-03-06T17:45:12.845Z,95.28
2023-03-06T17:47:41.199Z,94.63
2023-03-06T17:50:12.354Z,94.55
2023-03-06T17:52:40.912Z,94.46
2023-03-06T17:55:10.051Z,95.13
2023-03-06T17:57:38.258Z,94.68
2023-03-06T18:00:08.755Z,94.43
2023-03-06T18:02:45.354Z,94.54
2023-03-06T18:05:20.728Z,94.90
2023-03-06T18:07:48.877Z,95.22
2023-03-06T18:10:17.612Z,94.98
2023-03-06T18:12:45.806Z,95.05
2023-03-06T18:15:14.194Z,95.21
2023-03-06T18:17:42.550Z,95.91
2023-03-06T18:20:12.172Z,96.14
2023-03-06T18:22:41.817Z,95.77
2023-03-06T18:25:12.608Z,95.97
2023-03-06T18:27:40.734Z,96.62
2023-03-06T18:30:10.444Z,97.09
2023-03-06T18:32:39.197Z,96.46
2023-03-06T18:35:09.262Z,96.46
2023-03-06T18:37:37.424Z,95.75
2023-03-06T18:40:11.278Z,96.38
2023-03-06T18:42:39.610Z,96.02
2023-03-06T18:45:09.451Z,95.58
2023-03-06T18:47:37.795Z,95.82
2023-03-06T18:50:07.523Z,96.17
2023-03-06T18:52:36.095Z,95.96
2023-03-06T18:55:07.588Z,95.99
2023-03-06T18:57:37.986Z,96.24
2023-03-06T19:00:07.813Z,96.55
2023-03-06T19:02:38.514Z,95.88
2023-03-06T19:05:12.941Z,96.39
2023-03-06T19:07:41.219Z,96.74
2023-03-06T19:10:10.961Z,97.00
2023-03-06T19:12:40.636Z,96.95
2023-03-06T19:15:10.264Z,96.25
2023-03-06T19:17:41.438Z,96.30
2023-03-06T19:20:11.267Z,96.72
2023-03-06T19:22:41.880Z,97.12
2023-03-06T19:25:11.521Z,96.89
2023-03-06T19:27:44.813Z,96.88
2023-03-06T19:30:14.459Z,97.45
2023-03-06T19:32:46.111Z,97.46
2023-03-06T19:35:14.759Z,97.76
2023-03-06T19:37:43.172Z,97.62
2023-03-06T19:40:14.661Z,97.95
2023-03-06T19:42:46.907Z,97.99
2023-03-06T19:45:15.321Z,98.02
2023-03-06T19:47:43.559Z,97.61
2023-03-06T19:50:14.486Z,98.28
2023-03-06T19:52:42.917Z,98.07
2023-03-06T19:55:12.275Z,98.20
2023-03-06T19:57:40.480Z,97.76
2023-03-06T20:00:14.438Z,98.62
2023-03-06T20:02:43.550Z,98.63
2023-03-06T20:05:11.921Z,98.37
2023-03-06T20:07:40.637Z,99.30
2023-03-06T20:10:10.210Z,99.23
2023-03-06T20:12:38.436Z,98.94
2023-03-06T20:15:08.178Z,99.40
2023-03-06T20:17:40.499Z,99.04
2023-03-06T20:20:10.656Z,100.00
2023-03-06T20:22:39.080Z,99.85
2023-03-06T20:25:08.325Z,100.00
2023-03-06T20:27:37.028Z,100.00
2023-03-06T20:30:09.655Z,100.00
2023-03-06T20:32:39.845Z,100.00
2023-03-06T20:35:09.586Z,100.00
2023-03-06T20:37:41.208Z,100.00
2023-03-06T20:43:40.774Z,100.00
2023-03-06T20:46:09.321Z,100.00
2023-03-06T20:48:38.064Z,100.00
2023-03-06T20:51:08.331Z,100.00
2023-03-06T20:53:36.724Z,100.00
2023-03-06T20:56:05.663Z,100.00
2023-03-06T20:58:36.118Z,100.00
2023-03-06T21:01:07.978Z,100.00
2023-03-06T21:03:38.535Z,100.00
2023-03-06T21:06:09.188Z,100.00
2023-03-06T21:08:37.743Z,100.00
2023-03-06T21:11:06.426Z,100.00
2023-03-06T21:13:37.157Z,100.00
2023-03-06T21:16:08.343Z,100.00
2023-03-06T21:18:37.042Z,100.00
2023-03-06T21:21:07.415Z,100.00
2023-03-06T21:23:35.836Z,100.00
2023-03-06T21:26:04.396Z,100.00
2023-03-06T21:28:33.703Z,100.00
2023-03-06T21:31:03.067Z,100.00
2023-03-06T21:33:32.712Z,100.00
2023-03-06T21:36:01.315Z,100.00
2023-03-06T21:38:30.452Z,100.00
2023-03-06T21:41:09.123Z,100.00
2023-03-06T21:43:37.470Z,100.00
2023-03-06T21:46:06.143Z,100.00
2023-03-06T21:48:36.669Z,100.00
2023-03-06T21:51:12.982Z,100.00
2023-03-06T21:53:43.711Z,100.00
2023-03-06T21:56:17.142Z,100.00
2023-03-06T21:58:45.753Z,100.00
2023-03-06T22:01:18.108Z,100.00
2023-03-06T22:03:48.150Z,100.00
2023-03-06T22:06:18.537Z,100.00
2023-03-06T22:08:47.219Z,100.00
2023-03-06T22:11:17.897Z,100.00
2023-03-06T22:13:47.998Z,100.00
2023-03-06T22:16:20.923Z,100.00
2023-03-06T22:18:52.559Z,100.00
2023-03-06T22:21:22.992Z,100.00
2023-03-06T22:23:54.413Z,100.00
2023-03-06T22:26:22.628Z,100.00
2023-03-06T22:28:51.325Z,100.00
2023-03-06T22:31:23.831Z,100.00
2023-03-06T22:33:54.467Z,100.00
2023-03-06T22:36:24.076Z,100.00
2023-03-06T22:38:56.814Z,100.00
2023-03-06T22:41:26.977Z,100.00
2023-03-06T22:43:57.149Z,100.00
2023-03-06T22:46:26.519Z,100.00
2023-03-06T22:48:57.881Z,100.00
2023-03-06T22:51:27.611Z,100.00
2023-03-06T22:53:55.897Z,100.00
2023-03-06T22:56:26.862Z,100.00
2023-03-06T22:58:55.412Z,100.00
2023-03-06T23:01:28.465Z,100.00
2023-03-06T23:03:59.804Z,99.81
2023-03-06T23:06:30.243Z,99.82
2023-03-06T23:09:04.214Z,100.00
2023-03-06T23:11:33.180Z,99.24
2023-03-06T23:14:20.821Z,99.64
2023-03-06T23:17:07.920Z,99.60
2023-03-06T23:19:55.964Z,99.67
2023-03-06T23:22:43.335Z,99.81
2023-03-06T23:25:30.620Z,99.29
2023-03-06T23:27:58.964Z,100.00
2023-03-06T23:30:27.603Z,99.26
2023-03-06T23:32:58.061Z,99.48
2023-03-06T23:35:27.707Z,98.80
2023-03-06T23:37:55.985Z,98.22
2023-03-06T23:40:24.469Z,98.51
2023-03-06T23:42:53.076Z,97.78
2023-03-06T23:45:21.949Z,97.58
2023-03-06T23:47:50.357Z,97.76
2023-03-06T23:50:18.975Z,97.51
2023-03-06T23:52:48.582Z,96.90
2023-03-06T23:55:17.165Z,97.17
2023-03-06T23:57:48.449Z,97.40
